Terminal Aerodrome Forecast
Issued by NWS

Home | Current Version | Previous Version | Text Only | Print | Product List | Glossary On
Versions: 1 2 3 4 5 6 7 8 9 10 11 12 13 14 15 16 17
755
FTUS42 KTBW 290520
TAFPIE
TAF
KPIE 290520Z 2906/3006 07010KT P6SM FEW030 SCT150 SCT250
     FM291500 08010G15KT P6SM FEW009 SCT030 BKN110
     FM291800 08010G15KT P6SM VCTS SCT035CB BKN100
     FM300100 08010KT P6SM SCT025 BKN100 OVC200=

USA.gov is the U.S. government's official web portal to all federal, state and local government web resources and services.